Time;durP1;ratioP1;P1;durP2;ratioP2;P2;SDS_P1;SDS_P2;PMS_P1;PMS_P2;Temp;Humidity;BMP_temperature;BMP_pressure;BME280_temperature;BME280_humidity;BME280_pressure;Samples;Min_cycle;Max_cycle;Signal;HPM_P1;HPM_P2
2022/04/01 00:00:42;;;;;;;31.93;9.20;;;;;;;13.22;58.17;100120.56;1715598;83;21021;-66
2022/04/01 00:03:09;;;;;;;35.30;12.33;;;;;;;13.20;58.21;100119.78;1720626;83;21081;-66
2022/04/01 00:05:40;;;;;;;33.42;11.03;;;;;;;13.19;58.26;100128.55;1713295;83;21033;-66
2022/04/01 00:08:08;;;;;;;34.88;10.90;;;;;;;13.18;58.17;100137.28;1719258;83;21077;-66
2022/04/01 00:10:35;;;;;;;28.60;9.85;;;;;;;13.17;58.23;100130.38;1717437;83;21046;-66
2022/04/01 00:13:02;;;;;;;33.65;10.38;;;;;;;13.15;58.19;100124.37;1715453;83;21042;-66
2022/04/01 00:15:30;;;;;;;31.73;10.45;;;;;;;13.13;58.22;100121.80;1714992;83;21030;-66
2022/04/01 00:17:57;;;;;;;35.95;10.05;;;;;;;13.12;58.26;100114.03;1715112;83;21061;-66
2022/04/01 00:20:27;;;;;;;27.32;9.68;;;;;;;13.11;58.30;100109.73;1715097;83;21049;-66
2022/04/01 00:22:53;;;;;;;29.15;10.13;;;;;;;13.08;58.36;100099.78;1714894;83;21084;-66
2022/04/01 00:25:20;;;;;;;31.27;11.63;;;;;;;13.09;58.27;100095.41;1706370;83;21069;-66
2022/04/01 00:27:48;;;;;;;31.55;10.93;;;;;;;13.10;58.24;100091.05;1712610;83;21038;-66
2022/04/01 00:30:16;;;;;;;32.05;11.65;;;;;;;13.10;58.24;100089.74;1711475;82;21081;-66
2022/04/01 00:32:44;;;;;;;31.12;10.48;;;;;;;13.11;58.25;100087.53;1710183;83;21057;-66
2022/04/01 00:35:11;;;;;;;32.35;11.53;;;;;;;13.10;58.23;100089.74;1715380;83;21545;-66
2022/04/01 00:37:40;;;;;;;29.67;10.03;;;;;;;13.10;58.22;100092.36;1713477;83;21037;-66
2022/04/01 00:40:11;;;;;;;36.48;10.00;;;;;;;13.11;58.26;100090.15;1706789;83;21054;-67
2022/04/01 00:42:37;;;;;;;33.28;10.00;;;;;;;13.08;58.23;100085.41;1709773;83;21053;-67
2022/04/01 00:45:07;;;;;;;28.12;10.28;;;;;;;13.08;58.27;100099.41;1709670;83;21034;-67
2022/04/01 00:47:34;;;;;;;28.85;9.80;;;;;;;13.08;58.25;100091.95;1710007;83;20982;-67
2022/04/01 00:50:02;;;;;;;26.87;11.05;;;;;;;13.08;58.24;100078.51;1712167;83;21041;-67
2022/04/01 00:52:30;;;;;;;34.75;10.88;;;;;;;13.06;58.27;100075.97;1712979;83;21558;-67
2022/04/01 00:54:58;;;;;;;40.33;11.20;;;;;;;13.05;58.21;100097.31;1711646;83;21050;-67
2022/04/01 00:57:25;;;;;;;33.00;10.55;;;;;;;13.04;58.28;100085.64;1708833;83;21566;-67
2022/04/01 00:59:54;;;;;;;28.45;10.80;;;;;;;13.04;58.26;100069.48;1705713;83;21102;-65
2022/04/01 01:02:21;;;;;;;27.22;10.72;;;;;;;13.03;58.23;100067.77;1709241;83;21026;-67
2022/04/01 01:04:50;;;;;;;29.65;10.72;;;;;;;13.03;58.26;100048.19;1709909;83;21057;-67
2022/04/01 01:07:19;;;;;;;32.75;11.22;;;;;;;13.04;58.15;100049.90;1711147;83;21558;-67
2022/04/01 01:09:47;;;;;;;42.10;11.08;;;;;;;13.04;58.14;100056.91;1712741;83;21034;-66
2022/04/01 01:12:17;;;;;;;33.13;10.65;;;;;;;13.04;58.11;100055.60;1684841;83;21577;-66
2022/04/01 01:14:44;;;;;;;31.52;10.53;;;;;;;13.04;58.05;100054.30;1708638;83;21089;-67
2022/04/01 01:17:12;;;;;;;29.20;9.70;;;;;;;13.04;57.96;100049.90;1711533;83;21074;-67
2022/04/01 01:19:40;;;;;;;25.60;9.53;;;;;;;13.04;57.89;100052.98;1709747;83;21077;-67
2022/04/01 01:22:08;;;;;;;33.00;10.10;;;;;;;13.03;57.84;100048.19;1709997;83;21070;-67
2022/04/01 01:24:38;;;;;;;34.30;10.38;;;;;;;13.02;57.73;100043.86;1711288;83;21062;-67
2022/04/01 01:27:08;;;;;;;32.10;9.95;;;;;;;13.02;57.67;100050.87;1706420;82;21453;-67
2022/04/01 01:29:39;;;;;;;39.73;11.20;;;;;;;12.99;57.76;100054.45;1716191;83;20994;-66
2022/04/01 01:32:14;;;;;;;30.50;10.15;;;;;;;12.99;57.68;100048.38;1658657;86;21093;-67
2022/04/01 01:34:41;;;;;;;37.78;11.00;;;;;;;12.99;57.67;100049.23;1658692;86;21140;-67
2022/04/01 01:37:11;;;;;;;44.13;10.40;;;;;;;12.97;57.56;100049.75;1656522;86;21025;-67
2022/04/01 01:39:39;;;;;;;28.07;9.45;;;;;;;12.96;57.52;100048.04;1648969;86;21080;-67
2022/04/01 01:42:07;;;;;;;29.60;10.35;;;;;;;12.96;57.51;100040.69;1657448;86;21057;-67
2022/04/01 01:44:36;;;;;;;33.53;12.13;;;;;;;12.93;57.57;100046.87;1658629;86;21045;-67
2022/04/01 01:47:04;;;;;;;27.17;9.68;;;;;;;12.91;57.58;100053.93;1658843;86;21093;-67
2022/04/01 01:49:31;;;;;;;36.48;10.43;;;;;;;12.88;57.69;100068.41;1656900;86;21049;-67
2022/04/01 01:54:45;;;;;;;36.58;10.78;;;;;;;12.85;57.67;100054.19;1650757;86;21101;-67
2022/04/01 01:57:15;;;;;;;45.90;11.00;;;;;;;12.82;57.82;100038.64;1666413;86;21033;-67
2022/04/01 01:59:43;;;;;;;32.42;9.78;;;;;;;12.82;57.78;100032.56;1660617;86;21093;-67
2022/04/01 02:02:11;;;;;;;38.15;12.28;;;;;;;12.82;57.81;100033.42;1645604;86;21125;-67
2022/04/01 02:04:39;;;;;;;33.23;11.25;;;;;;;12.84;57.71;100026.81;1663499;86;21108;-67
2022/04/01 02:07:09;;;;;;;34.92;9.43;;;;;;;12.84;57.70;100021.14;1661152;86;21038;-67
2022/04/01 02:09:38;;;;;;;39.40;10.53;;;;;;;12.85;57.64;100032.00;1653267;86;21021;-67
2022/04/01 02:12:06;;;;;;;32.48;10.18;;;;;;;12.84;57.60;100031.59;1662309;86;21096;-67
2022/04/01 02:14:34;;;;;;;37.25;10.90;;;;;;;12.83;57.68;100023.83;1662975;86;21081;-67
2022/04/01 02:17:04;;;;;;;28.32;9.53;;;;;;;12.84;57.64;100036.81;1659226;86;21540;-68
2022/04/01 02:19:32;;;;;;;38.70;10.80;;;;;;;12.84;57.63;100039.42;1652293;86;21544;-66
2022/04/01 02:22:02;;;;;;;29.85;10.93;;;;;;;12.83;57.55;100027.30;1662232;86;21092;-67
2022/04/01 02:24:31;;;;;;;35.35;9.50;;;;;;;12.82;57.61;100033.42;1648671;86;21101;-66
2022/04/01 02:26:58;;;;;;;39.70;11.33;;;;;;;12.81;57.61;100021.30;1638360;87;21522;-67
2022/04/01 02:29:26;;;;;;;33.80;10.30;;;;;;;12.82;57.58;100013.84;1684022;84;21046;-67
2022/04/01 02:32:06;;;;;;;39.08;10.18;;;;;;;12.81;57.62;100010.85;1652072;85;21098;-66
2022/04/01 02:34:51;;;;;;;27.48;10.70;;;;;;;12.80;57.70;100024.80;1652864;86;21621;-67
2022/04/01 02:37:20;;;;;;;37.03;10.98;;;;;;;12.80;57.76;100022.19;1653081;87;21058;-67
2022/04/01 02:39:48;;;;;;;32.90;11.03;;;;;;;12.78;57.82;100010.11;1652879;87;21059;-67
2022/04/01 02:42:17;;;;;;;30.37;10.35;;;;;;;12.78;57.87;100026.63;1629915;87;21018;-67
2022/04/01 02:44:44;;;;;;;38.28;11.10;;;;;;;12.76;58.01;100036.29;1652936;87;21058;-67
2022/04/01 02:47:11;;;;;;;31.15;10.53;;;;;;;12.77;58.00;100052.36;1652872;87;21054;-67
2022/04/01 02:49:38;;;;;;;45.35;12.00;;;;;;;12.77;58.00;100051.05;1653057;87;21077;-67
2022/04/01 02:52:06;;;;;;;35.23;11.48;;;;;;;12.79;58.01;100055.75;1653020;87;21102;-67
2022/04/01 02:54:36;;;;;;;35.63;10.70;;;;;;;12.79;57.95;100057.06;1653167;87;21028;-67
2022/04/01 02:57:04;;;;;;;37.73;9.13;;;;;;;12.79;57.92;100050.53;1629579;87;21039;-67
2022/04/01 02:59:32;;;;;;;29.30;9.78;;;;;;;12.79;57.93;100033.56;1651099;87;21607;-67
2022/04/01 03:01:59;;;;;;;33.60;10.58;;;;;;;12.79;57.98;100032.26;1641076;87;21047;-67
2022/04/01 03:04:28;;;;;;;29.05;9.78;;;;;;;12.80;57.88;100033.08;1652853;87;21035;-67
2022/04/01 03:06:57;;;;;;;32.42;9.73;;;;;;;12.79;57.86;100030.95;1653457;87;21046;-67
2022/04/01 03:09:25;;;;;;;33.13;10.20;;;;;;;12.80;57.92;100036.55;1692678;84;21031;-66
2022/04/01 03:11:58;;;;;;;35.35;9.78;;;;;;;12.78;57.88;100038.83;1680969;84;21102;-67
2022/04/01 03:14:30;;;;;;;37.33;9.45;;;;;;;12.76;57.89;100036.29;1666910;85;21062;-67
2022/04/01 03:17:12;;;;;;;34.78;9.75;;;;;;;12.75;57.90;100033.75;1591058;89;21584;-67
2022/04/01 03:19:41;;;;;;;38.45;9.95;;;;;;;12.73;57.88;100039.49;1591235;89;21144;-67
2022/04/01 03:22:09;;;;;;;26.82;9.93;;;;;;;12.68;57.96;100046.20;1586207;90;21124;-67
2022/04/01 03:24:37;;;;;;;32.75;10.63;;;;;;;12.67;58.04;100044.97;1591208;89;21122;-67
2022/04/01 03:27:06;;;;;;;37.20;9.63;;;;;;;12.66;58.03;100041.95;1591134;89;21080;-67
2022/04/01 03:29:33;;;;;;;33.78;9.58;;;;;;;12.63;58.10;100045.53;1591292;89;21108;-67
2022/04/01 03:32:01;;;;;;;35.38;10.60;;;;;;;12.64;58.07;100043.33;1590895;90;21102;-67
2022/04/01 03:34:28;;;;;;;36.65;9.48;;;;;;;12.63;58.07;100042.92;1591412;89;21056;-67
2022/04/01 03:36:56;;;;;;;31.00;9.03;;;;;;;12.62;58.11;100046.45;1591176;89;21052;-67
2022/04/01 03:39:24;;;;;;;35.48;9.18;;;;;;;12.62;58.19;100054.29;1591205;89;21641;-67
2022/04/01 03:41:53;;;;;;;29.85;9.15;;;;;;;12.60;58.19;100053.50;1594633;89;21047;-67
2022/04/01 03:44:24;;;;;;;35.68;10.55;;;;;;;12.60;58.22;100052.64;1571107;89;21008;-67
2022/04/01 03:47:02;;;;;;;25.12;8.10;;;;;;;12.58;58.32;100046.19;1588677;89;21115;-67
2022/04/01 03:49:32;;;;;;;33.83;9.10;;;;;;;12.56;58.41;100046.71;1596646;89;21106;-67
2022/04/01 03:52:00;;;;;;;32.55;10.50;;;;;;;12.56;58.42;100048.02;1574312;86;21036;-67
2022/04/01 03:54:29;;;;;;;34.40;10.45;;;;;;;12.55;58.47;100038.47;1721247;83;20994;-67
2022/04/01 03:57:03;;;;;;;37.30;9.78;;;;;;;12.57;58.39;100040.56;1720379;83;21053;-67
2022/04/01 03:59:51;;;;;;;33.55;9.70;;;;;;;12.58;58.34;100040.11;1721159;82;21541;-67
2022/04/01 04:02:36;;;;;;;39.75;11.73;;;;;;;12.58;58.38;100040.11;1704106;83;21467;-67
2022/04/01 04:05:07;;;;;;;36.83;10.13;;;;;;;12.60;58.32;100050.03;1720320;83;21025;-67
2022/04/01 04:07:34;;;;;;;36.03;9.25;;;;;;;12.62;58.26;100043.84;1708436;83;21565;-67
2022/04/01 04:10:08;;;;;;;34.60;10.18;;;;;;;12.63;58.24;100046.01;1709020;82;21034;-68
2022/04/01 04:12:38;;;;;;;28.65;8.73;;;;;;;12.65;58.27;100043.70;1711041;83;21034;-66
2022/04/01 04:15:09;;;;;;;31.02;8.78;;;;;;;12.67;58.16;100054.96;1705206;83;21041;-67
2022/04/01 04:17:44;;;;;;;32.70;8.45;;;;;;;12.70;58.10;100055.27;1719205;83;21033;-67
2022/04/01 04:20:24;;;;;;;32.50;9.88;;;;;;;12.72;58.11;100054.75;1732440;83;21037;-66
2022/04/01 04:23:17;;;;;;;36.63;10.20;;;;;;;12.73;58.04;100044.27;1647383;86;21062;-66
2022/04/01 04:25:53;;;;;;;42.58;9.98;;;;;;;12.74;57.99;100043.34;1646167;85;21542;-66
2022/04/01 04:28:25;;;;;;;38.63;10.10;;;;;;;12.76;57.89;100044.13;1628460;86;21528;-66
2022/04/01 04:30:55;;;;;;;38.13;9.50;;;;;;;12.79;57.82;100045.77;1624268;86;21580;-67
2022/04/01 04:33:27;;;;;;;33.15;9.08;;;;;;;12.81;57.80;100050.02;1554351;92;21101;-66
2022/04/01 04:35:55;;;;;;;33.08;9.83;;;;;;;12.84;57.71;100044.64;1554010;92;21049;-67
2022/04/01 04:38:23;;;;;;;33.10;8.80;;;;;;;12.86;57.53;100036.29;1547182;91;21562;-67
2022/04/01 04:40:52;;;;;;;37.58;10.60;;;;;;;12.90;57.56;100035.24;1556363;92;21110;-67
2022/04/01 04:43:21;;;;;;;37.80;9.88;;;;;;;12.94;57.47;100029.45;1532960;93;21133;-67
2022/04/01 04:45:53;;;;;;;26.17;8.58;;;;;;;12.97;57.29;100012.34;1536026;92;21049;-67
2022/04/01 04:48:20;;;;;;;30.95;9.85;;;;;;;12.99;57.21;100015.28;1523759;93;21112;-67
2022/04/01 04:50:48;;;;;;;27.27;9.28;;;;;;;13.00;57.16;100015.66;1551898;92;21134;-67
2022/04/01 04:53:15;;;;;;;33.88;9.25;;;;;;;13.00;57.10;100010.91;1551809;92;21148;-67
2022/04/01 04:55:45;;;;;;;37.25;10.20;;;;;;;13.02;57.11;100001.25;1551481;92;21122;-67
2022/04/01 04:58:14;;;;;;;30.72;8.55;;;;;;;13.02;57.05;99999.45;1549350;92;21130;-67
2022/04/01 05:00:45;;;;;;;26.55;8.08;;;;;;;13.05;56.94;99996.77;1557466;92;21070;-67
2022/04/01 05:03:40;;;;;;;27.52;8.20;;;;;;;13.06;56.86;100001.05;1546038;92;21070;-67
2022/04/01 05:06:09;;;;;;;28.10;8.85;;;;;;;13.08;56.78;100004.45;1565626;90;21118;-68
2022/04/01 05:09:09;;;;;;;35.03;9.20;;;;;;;13.05;56.86;100000.68;1532483;94;21784;-67
2022/04/01 05:11:58;;;;;;;31.85;9.50;;;;;;;13.05;56.94;100015.49;1452103;98;21095;-67
2022/04/01 05:14:44;;;;;;;33.53;8.70;;;;;;;13.08;56.95;100018.44;1457779;98;21115;-66
2022/04/01 05:17:22;;;;;;;45.43;9.50;;;;;;;13.11;56.80;100020.93;1454645;98;21159;-67
2022/04/01 05:20:00;;;;;;;32.48;9.78;;;;;;;13.15;56.72;100022.50;1423546;100;21124;-67
2022/04/01 05:22:38;;;;;;;29.75;8.10;;;;;;;13.17;56.72;100022.80;1430636;100;21147;-67
2022/04/01 05:25:08;;;;;;;33.58;10.20;;;;;;;13.22;56.56;100021.29;1428485;99;21725;-67
2022/04/01 05:27:41;;;;;;;31.87;8.78;;;;;;;13.25;56.46;100015.95;1422438;101;21145;-67
2022/04/01 05:30:16;;;;;;;26.97;8.60;;;;;;;13.28;56.42;100027.55;1385742;101;21095;-66
2022/04/01 05:32:59;;;;;;;29.32;8.40;;;;;;;13.30;56.23;100032.25;1391189;103;21151;-66
2022/04/01 05:35:31;;;;;;;34.73;9.25;;;;;;;13.32;56.27;100033.03;1391016;102;21713;-66
2022/04/01 05:37:59;;;;;;;27.10;8.70;;;;;;;13.35;56.21;100023.77;1391079;103;21195;-66
2022/04/01 05:40:30;;;;;;;26.55;7.87;;;;;;;13.39;56.08;100026.63;1427232;99;21126;-66
2022/04/01 05:43:00;;;;;;;31.65;9.83;;;;;;;13.43;56.03;100022.96;1423484;101;21162;-66
2022/04/01 05:45:44;;;;;;;35.13;8.88;;;;;;;13.48;55.89;100008.76;1420208;99;21153;-66
2022/04/01 05:48:14;;;;;;;33.33;9.80;;;;;;;13.54;55.71;100018.11;1423475;99;21155;-66
2022/04/01 05:50:41;;;;;;;32.38;9.10;;;;;;;13.58;55.60;100024.89;1423533;100;21139;-66
2022/04/01 05:53:08;;;;;;;28.20;8.30;;;;;;;13.63;55.57;100026.82;1423282;99;21132;-67
2022/04/01 05:55:46;;;;;;;29.05;9.70;;;;;;;13.71;55.45;100029.94;1425073;100;21118;-66
2022/04/01 05:58:14;;;;;;;30.50;8.85;;;;;;;13.85;55.25;100037.98;1424995;100;21193;-67
2022/04/01 06:01:08;;;;;;;33.20;9.15;;;;;;;13.97;54.87;100033.52;1425015;99;21261;-66
2022/04/01 06:03:46;;;;;;;28.15;9.58;;;;;;;14.12;54.43;100034.53;1411766;101;21149;-66
2022/04/01 06:06:31;;;;;;;29.72;8.95;;;;;;;14.29;54.19;100032.86;1386437;103;21172;-66
2022/04/01 06:09:27;;;;;;;33.30;9.00;;;;;;;14.52;53.80;100034.36;1399488;101;21600;-67
2022/04/01 06:12:29;;;;;;;35.10;8.83;;;;;;;14.77;53.11;100047.09;1425105;100;21119;-67
2022/04/01 06:15:21;;;;;;;31.05;8.30;;;;;;;14.99;52.41;100041.14;1441664;99;21198;-66
2022/04/01 06:18:28;;;;;;;31.42;9.23;;;;;;;15.18;51.96;100040.59;1431465;100;21189;-65
2022/04/01 06:20:55;;;;;;;30.17;8.50;;;;;;;15.34;51.38;100054.14;1447708;98;21676;-65
2022/04/01 06:23:37;;;;;;;42.33;9.83;;;;;;;15.46;51.15;100064.47;1448107;99;21170;-64
2022/04/01 06:26:04;;;;;;;31.97;9.15;;;;;;;15.56;50.73;100059.61;1448112;98;21110;-65
2022/04/01 06:28:36;;;;;;;35.75;10.50;;;;;;;15.66;50.39;100066.88;1459752;98;21141;-65
2022/04/01 06:31:05;;;;;;;33.23;9.00;;;;;;;15.76;50.22;100052.37;1459733;98;21149;-66
2022/04/01 06:33:56;;;;;;;25.82;8.35;;;;;;;15.86;49.85;100053.56;1459993;98;21634;-66
2022/04/01 06:36:45;;;;;;;26.45;7.87;;;;;;;15.91;49.59;100041.02;1417858;99;21606;-65
2022/04/01 06:39:24;;;;;;;31.48;7.85;;;;;;;15.92;49.48;100055.85;1415844;101;21122;-66
2022/04/01 06:41:55;;;;;;;33.65;8.45;;;;;;;15.94;49.26;100047.43;1347121;106;21222;-66
2022/04/01 06:44:41;;;;;;;33.65;9.63;;;;;;;15.98;49.08;100045.48;1368046;103;21232;-66
2022/04/01 06:47:17;;;;;;;24.00;7.47;;;;;;;16.02;48.99;100067.53;1406545;101;21116;-66
2022/04/01 06:49:46;;;;;;;31.57;7.95;;;;;;;16.04;48.81;100051.23;1414509;100;21188;-66
2022/04/01 06:52:32;;;;;;;29.02;8.55;;;;;;;16.00;48.69;100049.72;1444533;99;21138;-65
2022/04/01 06:55:10;;;;;;;25.68;8.20;;;;;;;15.97;48.65;100056.43;1450036;99;21107;-65
2022/04/01 06:57:54;;;;;;;31.80;8.60;;;;;;;15.94;48.65;100050.05;1449344;98;21117;-66
2022/04/01 07:00:23;;;;;;;29.87;9.28;;;;;;;15.91;48.63;100071.20;1449345;98;21147;-66
2022/04/01 07:02:50;;;;;;;32.95;8.85;;;;;;;15.88;48.64;100067.44;1458015;97;21128;-65
2022/04/01 07:05:18;;;;;;;30.00;9.83;;;;;;;15.87;48.72;100069.67;1461903;98;21116;-65
2022/04/01 07:07:47;;;;;;;32.35;9.40;;;;;;;15.91;48.73;100067.27;1462001;97;21089;-65
2022/04/01 07:10:15;;;;;;;31.85;9.93;;;;;;;16.00;48.74;100082.52;1461899;97;21078;-66
2022/04/01 07:12:41;;;;;;;27.98;8.10;;;;;;;16.11;48.43;100088.04;1462327;97;21156;-65
2022/04/01 07:15:12;;;;;;;30.25;8.60;;;;;;;16.23;48.10;100075.55;1461956;98;21105;-65
2022/04/01 07:17:40;;;;;;;24.92;7.55;;;;;;;16.33;47.80;100082.89;1462193;98;21121;-65
2022/04/01 07:20:10;;;;;;;27.55;8.58;;;;;;;16.43;47.52;100084.07;1490429;95;21130;-64
2022/04/01 07:22:38;;;;;;;30.48;8.88;;;;;;;16.51;47.41;100076.64;1492203;95;21616;-65
2022/04/01 07:25:12;;;;;;;33.02;9.30;;;;;;;16.61;47.11;100066.02;1563014;90;21202;-65
2022/04/01 07:27:39;;;;;;;33.90;8.93;;;;;;;16.69;46.96;100065.11;1577890;91;21626;-65
2022/04/01 07:30:08;;;;;;;33.48;8.33;;;;;;;16.78;46.73;100061.93;1578019;91;21075;-65
2022/04/01 07:32:36;;;;;;;30.52;9.45;;;;;;;16.85;46.36;100067.22;1578166;91;21059;-65
2022/04/01 07:35:13;;;;;;;29.37;8.48;;;;;;;16.87;46.27;100066.66;1572864;91;21115;-65
2022/04/01 07:40:13;;;;;;;27.60;8.55;;;;;;;16.91;46.10;100061.61;1560837;91;21110;-64
2022/04/01 07:42:41;;;;;;;34.63;8.08;;;;;;;16.93;46.02;100057.96;1559276;91;21138;-64
2022/04/01 07:45:10;;;;;;;29.12;8.20;;;;;;;16.94;45.86;100056.16;1546285;92;21570;-65
2022/04/01 07:47:38;;;;;;;39.13;9.78;;;;;;;16.91;45.96;100069.03;1575752;90;21599;-64
2022/04/01 07:50:07;;;;;;;25.92;8.05;;;;;;;16.91;45.86;100062.92;1561709;90;21075;-67
2022/04/01 07:52:39;;;;;;;30.20;8.03;;;;;;;16.90;45.82;100053.33;1627991;87;21056;-66
2022/04/01 07:55:04;;;;;;;30.08;8.60;;;;;;;16.88;45.67;100044.23;1621028;87;21072;-66
2022/04/01 07:57:31;;;;;;;22.45;8.13;;;;;;;16.86;45.83;100041.30;1628358;87;21131;-66
2022/04/01 07:59:58;;;;;;;31.42;8.55;;;;;;;16.84;45.68;100049.75;1624307;87;21069;-66
2022/04/01 08:02:25;;;;;;;21.50;7.90;;;;;;;16.80;45.64;100056.12;1632368;87;21033;-66
2022/04/01 08:04:53;;;;;;;33.45;8.45;;;;;;;16.75;45.87;100045.05;1628193;86;21064;-65
2022/04/01 08:07:22;;;;;;;28.10;8.15;;;;;;;16.73;45.82;100065.30;1632595;87;21060;-66
2022/04/01 08:09:49;;;;;;;35.43;8.75;;;;;;;16.73;45.83;100062.69;1626223;87;21576;-65
2022/04/01 08:12:16;;;;;;;23.83;7.87;;;;;;;16.73;45.89;100057.42;1634798;87;21084;-66
2022/04/01 08:14:43;;;;;;;27.55;8.88;;;;;;;16.76;45.86;100063.80;1628883;87;21655;-66
2022/04/01 08:17:12;;;;;;;38.10;10.18;;;;;;;16.78;45.71;100061.47;1628076;87;21103;-65
2022/04/01 08:19:41;;;;;;;30.92;9.48;;;;;;;16.82;45.62;100064.76;1626703;87;21036;-65
2022/04/01 08:22:08;;;;;;;35.70;10.70;;;;;;;16.86;45.43;100058.39;1628245;87;21592;-65
2022/04/01 08:24:36;;;;;;;40.83;9.73;;;;;;;16.90;45.40;100062.06;1624645;87;21549;-66
2022/04/01 08:27:04;;;;;;;34.05;8.18;;;;;;;16.94;45.03;100060.09;1622724;86;21128;-66
2022/04/01 08:29:34;;;;;;;31.33;8.60;;;;;;;16.92;44.95;100041.80;1630282;87;21085;-65
2022/04/01 08:32:01;;;;;;;27.70;9.18;;;;;;;16.90;44.96;100046.76;1624440;87;21058;-65
2022/04/01 08:34:29;;;;;;;29.57;9.20;;;;;;;16.85;44.80;100044.42;1621360;87;21518;-66
2022/04/01 08:36:56;;;;;;;32.33;8.48;;;;;;;16.79;44.86;100027.70;1640791;85;21066;-65
2022/04/01 08:39:23;;;;;;;26.75;8.48;;;;;;;16.72;44.88;100026.36;1678315;85;21062;-65
2022/04/01 08:41:50;;;;;;;30.27;8.38;;;;;;;16.68;44.90;100025.31;1690123;84;21053;-66
2022/04/01 08:44:18;;;;;;;31.70;9.03;;;;;;;16.62;45.00;100029.15;1685992;84;21037;-66
2022/04/01 08:46:45;;;;;;;34.18;8.83;;;;;;;16.55;45.09;100026.97;1666624;85;21087;-66
2022/04/01 08:49:13;;;;;;;30.43;9.45;;;;;;;16.47;45.19;100013.37;1689073;84;21064;-66
2022/04/01 08:51:40;;;;;;;32.63;8.88;;;;;;;16.45;45.31;100012.61;1678334;85;21033;-65
2022/04/01 08:54:08;;;;;;;34.65;9.00;;;;;;;16.45;45.29;100015.24;1689560;83;21064;-65
2022/04/01 08:56:35;;;;;;;31.60;8.70;;;;;;;16.47;45.33;100014.69;1687126;84;21461;-65
2022/04/01 08:59:02;;;;;;;28.02;8.73;;;;;;;16.47;45.26;100002.87;1692767;84;21100;-66
2022/04/01 09:01:43;;;;;;;37.78;9.10;;;;;;;16.46;45.19;99984.13;1685657;84;21048;-67
2022/04/01 09:04:22;;;;;;;34.27;9.90;;;;;;;16.40;45.26;99985.80;1685653;84;21540;-66
2022/04/01 09:06:50;;;;;;;37.45;9.85;;;;;;;16.34;45.44;99982.20;1656112;84;21046;-65
2022/04/01 09:09:25;;;;;;;26.07;8.40;;;;;;;16.26;45.62;99979.55;1666812;84;21075;-65
2022/04/01 09:12:17;;;;;;;30.43;8.75;;;;;;;16.24;45.75;99969.59;1659932;86;21047;-64
2022/04/01 09:14:53;;;;;;;33.38;9.83;;;;;;;16.24;45.75;99981.41;1671829;86;21023;-65
2022/04/01 09:17:21;;;;;;;32.38;7.92;;;;;;;16.23;45.87;99982.81;1661951;86;21132;-65
2022/04/01 09:19:48;;;;;;;25.90;8.30;;;;;;;16.21;45.88;99971.10;1657532;86;21034;-64
2022/04/01 09:22:23;;;;;;;30.48;9.08;;;;;;;16.19;45.94;99975.59;1656980;86;21095;-65
2022/04/01 09:24:58;;;;;;;30.60;8.35;;;;;;;16.19;45.88;99978.22;1657180;84;21030;-65
2022/04/01 09:27:47;;;;;;;24.82;8.55;;;;;;;16.18;45.94;99976.52;1616094;88;21038;-64
2022/04/01 09:30:22;;;;;;;39.42;10.40;;;;;;;16.17;45.97;99972.21;1624984;87;21506;-65
2022/04/01 09:32:55;;;;;;;35.88;9.28;;;;;;;16.15;45.96;99960.95;1602836;89;21079;-65
2022/04/01 09:35:26;;;;;;;34.45;8.98;;;;;;;16.14;46.08;99961.87;1603320;89;21130;-65
2022/04/01 09:37:58;;;;;;;27.40;8.58;;;;;;;16.13;46.09;99961.51;1584171;91;21121;-65
2022/04/01 09:40:25;;;;;;;27.87;8.93;;;;;;;16.14;46.09;99961.87;1584267;89;21131;-66
2022/04/01 09:42:55;;;;;;;37.35;9.83;;;;;;;16.14;46.07;99952.69;1583857;91;21538;-64
2022/04/01 09:45:26;;;;;;;37.42;9.58;;;;;;;16.16;46.11;99956.06;1547053;91;21181;-65
2022/04/01 09:48:08;;;;;;;33.28;9.08;;;;;;;16.20;46.03;99958.04;1500363;94;21100;-65
2022/04/01 09:50:41;;;;;;;30.00;8.63;;;;;;;16.27;46.01;99943.19;1492723;94;21100;-65
2022/04/01 09:53:14;;;;;;;33.83;8.50;;;;;;;16.35;45.78;99953.69;1491568;94;21117;-66
2022/04/01 09:55:44;;;;;;;23.25;8.90;;;;;;;16.40;45.74;99952.97;1500739;94;21088;-65
2022/04/01 09:58:12;;;;;;;31.35;10.63;;;;;;;16.47;45.63;99956.91;1500548;96;21111;-65
2022/04/01 10:00:40;;;;;;;27.73;8.60;;;;;;;16.54;45.41;99955.20;1500528;94;21643;-65
2022/04/01 10:03:10;;;;;;;32.75;9.30;;;;;;;16.61;45.23;99953.07;1494845;94;21096;-66
2022/04/01 10:05:40;;;;;;;32.40;8.55;;;;;;;16.65;45.03;99951.95;1500262;96;21131;-66
2022/04/01 10:08:10;;;;;;;31.93;9.30;;;;;;;16.67;44.95;99947.45;1483047;96;21097;-65
2022/04/01 10:10:40;;;;;;;38.55;9.98;;;;;;;16.70;45.02;99955.14;1434661;98;21674;-65
2022/04/01 10:13:29;;;;;;;28.60;8.08;;;;;;;16.71;44.91;99952.91;1410195;100;21693;-65
2022/04/01 10:15:58;;;;;;;35.65;9.20;;;;;;;16.74;44.79;99957.95;1392206;102;21170;-65
2022/04/01 10:18:25;;;;;;;31.20;9.10;;;;;;;16.73;44.65;99958.42;1445264;98;21700;-65
2022/04/01 10:20:54;;;;;;;34.80;9.90;;;;;;;16.68;44.65;99953.06;1443091;99;21597;-65
2022/04/01 10:23:24;;;;;;;31.73;9.88;;;;;;;16.62;44.69;99946.87;1456093;97;21086;-65
2022/04/01 10:26:13;;;;;;;33.63;8.58;;;;;;;16.54;44.78;99950.41;1450408;97;21738;-64
2022/04/01 10:28:39;;;;;;;28.70;8.80;;;;;;;16.46;44.91;99952.61;1462943;97;21124;-65
2022/04/01 10:31:14;;;;;;;35.85;9.65;;;;;;;16.40;45.07;99954.28;1437186;98;21155;-65
2022/04/01 10:33:41;;;;;;;40.25;10.58;;;;;;;16.34;45.17;99946.77;1438748;97;21151;-65
2022/04/01 10:36:31;;;;;;;35.40;9.58;;;;;;;16.30;45.33;99944.30;1524206;94;21117;-65
2022/04/01 10:39:06;;;;;;;31.42;10.15;;;;;;;16.33;45.37;99942.44;1524423;94;21133;-65
2022/04/01 10:41:33;;;;;;;34.75;11.12;;;;;;;16.37;45.24;99938.70;1536290;90;21053;-66
2022/04/01 10:44:04;;;;;;;32.98;9.93;;;;;;;16.37;45.22;99938.70;1600509;88;21596;-65
2022/04/01 10:46:58;;;;;;;30.55;9.00;;;;;;;16.34;45.19;99925.77;1635359;87;21082;-63
2022/04/01 10:55:09;;;;;;;36.45;9.25;;;;;;;16.15;45.56;99905.84;1537379;92;21077;-65
2022/04/01 10:57:46;;;;;;;34.23;9.33;;;;;;;16.12;45.66;99898.12;1537577;92;21599;-64
2022/04/01 11:00:17;;;;;;;27.15;8.78;;;;;;;16.13;45.77;99891.10;1537600;92;21123;-65
2022/04/01 11:02:48;;;;;;;32.90;8.38;;;;;;;16.15;45.77;99892.71;1537857;92;21581;-65
2022/04/01 11:05:31;;;;;;;;;;;;;;;16.17;45.71;99890.84;1539775;92;21093;-65
2022/04/01 11:08:19;;;;;;;;;;;;;;;16.21;45.70;99892.81;1563307;89;20416;-65
2022/04/01 11:11:12;;;;;;;28.02;9.00;;;;;;;16.25;45.58;99896.48;1575148;89;20165;-65
2022/04/01 11:13:40;;;;;;;35.43;9.70;;;;;;;16.26;45.51;99892.91;1582874;89;21038;-65
2022/04/01 11:16:22;;;;;;;34.43;10.15;;;;;;;16.30;45.35;99892.25;1582770;89;21085;-66
2022/04/01 11:19:19;;;;;;;41.30;9.58;;;;;;;16.33;45.27;99885.98;1558009;92;20973;-65
2022/04/01 11:21:47;;;;;;;39.25;10.38;;;;;;;16.34;45.13;99894.26;1576397;90;21605;-65
2022/04/01 11:24:35;;;;;;;33.02;8.93;;;;;;;16.35;45.13;99889.37;1557949;92;21084;-65
2022/04/01 11:27:24;;;;;;;31.70;9.00;;;;;;;16.37;45.15;99886.19;1533608;92;21620;-66
2022/04/01 11:30:15;;;;;;;38.83;10.65;;;;;;;16.37;45.04;99891.44;1533525;92;21029;-64
2022/04/01 11:32:45;;;;;;;31.17;9.43;;;;;;;16.36;44.98;99900.27;1533431;92;21529;-65
2022/04/01 11:35:13;;;;;;;29.70;8.28;;;;;;;16.33;45.11;99893.86;1533521;92;21025;-65
2022/04/01 11:37:42;;;;;;;36.28;9.70;;;;;;;16.27;45.16;99895.08;1531045;93;21140;-65
2022/04/01 11:40:18;;;;;;;31.70;8.95;;;;;;;16.18;45.32;99884.64;1545687;92;21480;-65
2022/04/01 11:43:03;;;;;;;31.77;9.85;;;;;;;16.13;45.50;99876.21;1545657;92;21093;-65
2022/04/01 11:45:42;;;;;;;31.68;9.00;;;;;;;16.08;45.52;99874.30;1545818;92;21077;-65
2022/04/01 11:48:38;;;;;;;34.35;9.20;;;;;;;16.07;45.54;99872.59;1558890;90;21101;-65
2022/04/01 11:51:13;;;;;;;33.35;10.63;;;;;;;16.02;45.70;99860.23;1571944;91;21058;-64